^^
Grace C. Lehan Memorial Weather Station Historical Data
Daily Summary for February 5, 2021 Units:  Metric    English   Both
Daily Weekly Monthly Yearly
  High: Low: Average:
Temperature: 5.9 °C -3.3 °C 1.2 °C
Dew Point: 2.9 °C -5.6 °C -0.9 °C
Humidity: 96% 79% 86%
Wind Speed: 6.8km/h 0km/h 0.5km/h
Wind Gust: 20.9km/h - -
Wind- - SW
Pressure: 1010 hPa 1001.9 hPa -
Precipitation: 2.79 mm    
 
 
Tabular Data for February 5, 2021
Time Temperature Dew Point Pressure Wind Wind Speed Wind Gust Humidity Rainfall Rate (Hourly) solar
00:04 -2.6 °C -5.2 °C 1010 hPa Calm     82.2% 0 mm 0 W/m2
00:09 -2.6 °C -5.1 °C 1010 hPa Calm     82.7% 0 mm 0 W/m2
00:14 -2.7 °C -5.2 °C 1010 hPa Calm     82.6% 0 mm 0 W/m2
00:19 -2.7 °C -5.2 °C 1009.7 hPa Calm     83% 0 mm 0 W/m2
00:24 -2.8 °C -5.2 °C 1009.7 hPa Calm     83% 0 mm 0 W/m2
00:29 -2.8 °C -5.3 °C 1010 hPa Calm     83% 0 mm 0 W/m2
00:34 -3 °C -5.4 °C 1010 hPa Calm     83% 0 mm 0 W/m2
00:39 -3.2 °C -5.6 °C 1010 hPa Calm     83.3% 0 mm 0 W/m2
00:44 -3.2 °C -5.5 °C 1010 hPa Calm     84.3% 0 mm 0 W/m2
00:49 -3.2 °C -5.3 °C 1010 hPa Calm     85% 0 mm 0 W/m2
00:54 -3.2 °C -5.3 °C 1010 hPa Calm     85% 0 mm 0 W/m2
00:59 -3.1 °C -5.3 °C 1010 hPa Calm     85% 0 mm 0 W/m2
01:04 -3.1 °C -5.2 °C 1010 hPa Calm     85% 0 mm 0 W/m2
01:09 -3 °C -5.2 °C 1010 hPa Calm     85% 0 mm 0 W/m2
01:14 -3 °C -4.8 °C 1010 hPa Calm     87.4% 0 mm 0 W/m2
01:19 -2.9 °C -5.1 °C 1010 hPa Calm     85% 0 mm 0 W/m2
01:24 -2.9 °C -5.1 °C 1009.7 hPa Calm     85% 0 mm 0 W/m2
01:29 -2.9 °C -5.1 °C 1009.7 hPa Calm     85% 0 mm 0 W/m2
01:34 -2.9 °C -5.1 °C 1009.4 hPa Calm     85% 0 mm 0 W/m2
01:39 -2.9 °C -5.1 °C 1009.4 hPa Calm     85% 0 mm 0 W/m2
01:44 -2.9 °C -5.1 °C 1009.4 hPa Calm     85% 0 mm 0 W/m2
01:49 -2.9 °C -5.1 °C 1009.4 hPa Calm     85% 0 mm 0 W/m2
01:54 -2.9 °C -5.1 °C 1009.4 hPa Calm     85% 0 mm 0 W/m2
01:59 -2.9 °C -5.1 °C 1009.4 hPa Calm     85% 0 mm 0 W/m2
02:04 -3 °C -5.2 °C 1009.7 hPa Calm     85% 0 mm 0 W/m2
02:09 -3.1 °C -5.3 °C 1009.7 hPa Calm     85% 0 mm 0 W/m2
02:14 -3.2 °C -5.3 °C 1009.7 hPa Calm     85% 0 mm 0 W/m2
02:19 -3.2 °C -5.4 °C 1009.7 hPa Calm     85% 0 mm 0 W/m2
02:24 -3.3 °C -5.4 °C 1009.4 hPa Calm     85% 0 mm 0 W/m2
02:29 -3.2 °C -5.3 °C 1010 hPa Calm     86% 0 mm 0 W/m2
02:34 -3.2 °C -5.2 °C 1010 hPa Calm     86% 0 mm 0 W/m2
02:39 -3.3 °C -5.3 °C 1009.4 hPa Calm     86% 0 mm 0 W/m2
02:44 -3.3 °C -5.3 °C 1009.7 hPa Calm     86% 0 mm 0 W/m2
02:49 -3.2 °C -5.2 °C 1009.7 hPa Calm     86% 0 mm 0 W/m2
02:54 -3.2 °C -5.2 °C 1009.7 hPa Calm     86% 0 mm 0 W/m2
02:59 -3.2 °C -5.2 °C 1009.4 hPa Calm     86% 0 mm 0 W/m2
03:04 -3.2 °C -5.2 °C 1009.4 hPa Calm     86% 0 mm 0 W/m2
03:09 -3.1 °C -5.1 °C 1009.4 hPa Calm     86% 0 mm 0 W/m2
03:14 -3 °C -4.9 °C 1009.4 hPa Calm     86.4% 0 mm 0 W/m2
03:19 -2.8 °C -4.8 °C 1009.4 hPa Calm     86.1% 0 mm 0 W/m2
03:24 -2.7 °C -4.7 °C 1009.4 hPa Calm     86% 0 mm 0 W/m2
03:29 -2.6 °C -4.6 °C 1009 hPa Calm     86% 0 mm 0 W/m2
03:34 -2.6 °C -4.7 °C 1009 hPa Calm     85.3% 0 mm 0 W/m2
03:39 -2.6 °C -4.7 °C 1009 hPa Calm     85% 0 mm 0 W/m2
03:44 -2.6 °C -4.7 °C 1009 hPa Calm     85% 0 mm 0 W/m2
03:49 -2.6 °C -4.8 °C 1009 hPa Calm     84.7% 0 mm 0 W/m2
03:54 -2.7 °C -5 °C 1009 hPa Calm     84% 0 mm 0 W/m2
03:59 -2.8 °C -5.1 °C 1009 hPa Calm     84% 0 mm 0 W/m2
04:00 -2.8 °C -5.2 °C 1009 hPa Calm     84% 0 mm 0 W/m2
04:09 -2.8 °C -4.9 °C 1009 hPa Calm     85% 0 mm 0 W/m2
04:14 -2.8 °C -4.8 °C 1009 hPa Calm     85.5% 0 mm 0 W/m2
04:19 -2.7 °C -4.7 °C 1009 hPa Calm     86% 0 mm 0 W/m2
04:24 -2.6 °C -4.6 °C 1008.7 hPa Calm     86% 0 mm 0 W/m2
04:29 -2.6 °C -4.6 °C 1008.7 hPa Calm     86% 0 mm 0 W/m2
04:34 -2.5 °C -4.7 °C 1008.7 hPa Calm     85% 0 mm 0 W/m2
04:39 -2.4 °C -4.6 °C 1008.4 hPa Calm     85% 0 mm 0 W/m2
04:44 -2.4 °C -4.6 °C 1008.4 hPa Calm     85% 0 mm 0 W/m2
04:49 -2.3 °C -4.6 °C 1008.4 hPa Calm     85% 0 mm 0 W/m2
04:54 -2.3 °C -4.5 °C 1008.4 hPa Calm     85% 0 mm 0 W/m2
04:59 -2.2 °C -4.4 °C 1008.4 hPa Calm     85% 0 mm 0 W/m2
05:04 -2.2 °C -4.3 °C 1008 hPa Calm     85% 0 mm 0 W/m2
05:09 -2.2 °C -4.3 °C 1008 hPa Calm     85% 0 mm 0 W/m2
05:14 -2.1 °C -4.3 °C 1008 hPa Calm     85% 0 mm 0 W/m2
05:19 -2.1 °C -4.2 °C 1007.7 hPa Calm     85% 0 mm 0 W/m2
05:24 -2.1 °C -4.2 °C 1007.3 hPa Calm     85% 0 mm 0 W/m2
05:29 -2 °C -4.2 °C 1007.7 hPa Calm     85% 0 mm 0 W/m2
05:34 -2 °C -4.2 °C 1008 hPa Calm     85% 0 mm 0 W/m2
05:39 -2 °C -4.2 °C 1008 hPa Calm     85% 0 mm 0 W/m2
05:44 -2 °C -4.2 °C 1008 hPa Calm     85% 0 mm 0 W/m2
05:49 -2 °C -4.2 °C 1007.3 hPa Calm     85% 0 mm 0 W/m2
05:54 -1.9 °C -4.2 °C 1007.7 hPa Calm     85% 0 mm 0 W/m2
05:59 -1.8 °C -4.1 °C 1007.3 hPa Calm     85% 0 mm 0 W/m2
06:04 -1.8 °C -4 °C 1007.3 hPa Calm     85% 0 mm 0 W/m2
06:09 -1.7 °C -3.9 °C 1007.3 hPa Calm     85% 0 mm 0 W/m2
06:14 -1.7 °C -3.9 °C 1007.3 hPa Calm     85% 0 mm 0 W/m2
06:19 -1.7 °C -3.9 °C 1007.3 hPa Calm     84.4% 0 mm 0 W/m2
06:24 -1.6 °C -3.9 °C 1007.3 hPa Calm     84% 0 mm 0 W/m2
06:29 -1.6 °C -3.9 °C 1007.3 hPa Calm     84% 0 mm 0 W/m2
06:34 -1.6 °C -3.9 °C 1007 hPa Calm     84% 0 mm 0 W/m2
06:39 -1.5 °C -3.9 °C 1007 hPa Calm     84% 0 mm 0 W/m2
06:44 -1.5 °C -3.8 °C 1007 hPa Calm     84% 0 mm 0 W/m2
06:49 -1.4 °C -3.8 °C 1007 hPa Calm     84% 0 mm 0 W/m2
06:54 -1.4 °C -3.7 °C 1007 hPa Calm     84% 0 mm 0 W/m2
06:59 -1.4 °C -3.7 °C 1007.3 hPa Calm     84% 0 mm 0 W/m2
07:04 -1.3 °C -3.7 °C 1007.3 hPa Calm     84% 0 mm 0 W/m2
07:09 -1.3 °C -3.7 °C 1007.3 hPa Calm     84% 0 mm 0 W/m2
07:14 -1.3 °C -3.6 °C 1007.3 hPa Calm     84% 0 mm 7 W/m2
07:19 -1.1 °C -3.3 °C 1007 hPa Calm     84.9% 0 mm 11 W/m2
07:24 -1 °C -3.2 °C 1006.7 hPa NW 0.5 km/h 1.6 km/h 85% 0 mm 11 W/m2
07:29 -0.8 °C -3.1 °C 1006.3 hPa Calm   1.6 km/h 85% 0 mm 11 W/m2
07:34 -0.8 °C -2.9 °C 1006.7 hPa Calm   1.6 km/h 85% 0 mm 9 W/m2
07:39 -0.7 °C -2.9 °C 1006.7 hPa Calm     85% 0 mm 11 W/m2
07:44 -0.7 °C -2.9 °C 1006.3 hPa Calm     85% 0 mm 14 W/m2
07:49 -0.6 °C -2.8 °C 1006.7 hPa Calm     85% 0 mm 18 W/m2
07:54 -0.6 °C -2.8 °C 1006.7 hPa Calm     85% 0 mm 18 W/m2
07:59 -0.6 °C -2.8 °C 1007 hPa Calm     85% 0 mm 14 W/m2
08:04 -0.6 °C -2.8 °C 1007 hPa Calm     85% 0 mm 12 W/m2
08:09 -0.6 °C -2.8 °C 1007 hPa Calm     85% 0 mm 18 W/m2
08:14 -0.6 °C -2.7 °C 1007 hPa Calm     85% 0 mm 19 W/m2
08:19 -0.5 °C -2.7 °C 1007 hPa Calm     85% 0 mm 25 W/m2
08:24 -0.4 °C -2.6 °C 1007 hPa Calm     85.2% 0 mm 25 W/m2
08:29 -0.3 °C -2.4 °C 1007 hPa Calm     85.5% 0 mm 37 W/m2
08:34 -0.2 °C -2.4 °C 1007 hPa Calm     85% 0 mm 47 W/m2
08:39 -0.1 °C -2.3 °C 1006.7 hPa Calm     85% 0 mm 44 W/m2
08:44 0.1 °C -2.1 °C 1006 hPa Calm     85% 0 mm 44 W/m2
08:49 0.2 °C -2.2 °C 1006 hPa Calm     84.2% 0 mm 33 W/m2
08:54 0.3 °C -2.1 °C 1005.6 hPa Calm     84% 0 mm 26 W/m2
08:59 0.3 °C -2.1 °C 1005.6 hPa Calm     84% 0 mm 19 W/m2
09:04 0.4 °C -2 °C 1005.6 hPa Calm     84% 0 mm 32 W/m2
09:09 0.4 °C -1.9 °C 1005.6 hPa Calm     84% 0 mm 37 W/m2
09:14 0.4 °C -1.9 °C 1005.6 hPa Calm     84% 0 mm 47 W/m2
09:19 0.5 °C -1.9 °C 1005.6 hPa Calm     84% 0 mm 74 W/m2
09:24 0.6 °C -1.8 °C 1005.6 hPa Calm   3.2 km/h 84% 0 mm 134 W/m2
09:29 0.8 °C -1.5 °C 1005.3 hPa NW 0.6 km/h 3.2 km/h 84.6% 0 mm 134 W/m2
09:34 1.2 °C -1 °C 1005.3 hPa NW 1.6 km/h 4.8 km/h 85.6% 0 mm 114 W/m2
09:39 1.6 °C -0.6 °C 1005.3 hPa WNW 1.9 km/h 6.4 km/h 85.8% 0 mm 98 W/m2
09:44 2 °C -0.2 °C 1005.3 hPa South 3.2 km/h 6.4 km/h 85% 0 mm 149 W/m2
09:49 2.6 °C 0.2 °C 1005.3 hPa South 5 km/h 9.7 km/h 84.5% 0 mm 134 W/m2
09:54 3.1 °C 0.7 °C 1005 hPa SSW 5.3 km/h 17.7 km/h 84% 0 mm 102 W/m2
09:59 3.6 °C 1.1 °C 1005 hPa SSW 6.8 km/h 19.3 km/h 83.5% 0 mm 123 W/m2
10:04 3.9 °C 1.3 °C 1005 hPa South 3.9 km/h 20.9 km/h 83.3% 0 mm 121 W/m2
10:09 4.2 °C 1.7 °C 1005 hPa South 4.2 km/h 20.9 km/h 84% 0 mm 83 W/m2
10:14 4.3 °C 1.8 °C 1005 hPa South 4.7 km/h 20.9 km/h 84% 0 mm 54 W/m2
10:19 4.3 °C 2.1 °C 1004.6 hPa South 5.1 km/h 20.9 km/h 85% 0 mm 70 W/m2
10:24 4.4 °C 2.1 °C 1004.6 hPa SSW 4 km/h 20.9 km/h 85% 0 mm 77 W/m2
10:29 4.4 °C 2.2 °C 1004.6 hPa South 2.3 km/h 20.9 km/h 85% 0 mm 63 W/m2
10:34 4.4 °C 2.2 °C 1004.6 hPa South 4.2 km/h 20.9 km/h 85.1% 0 mm 69 W/m2
10:39 4.5 °C 2.4 °C 1004.6 hPa South 3.4 km/h 17.7 km/h 86% 0 mm 83 W/m2
10:44 4.5 °C 2.4 °C 1004.6 hPa South 4.7 km/h 17.7 km/h 86% 0 mm 77 W/m2
10:49 4.5 °C 2.4 °C 1004.6 hPa South 3.1 km/h 17.7 km/h 86.2% 0 mm 100 W/m2
10:54 4.4 °C 2.4 °C 1004.3 hPa SSW 1.8 km/h 17.7 km/h 87% 0 mm 97 W/m2
10:59 4.4 °C 2.4 °C 1004.3 hPa South 3.9 km/h 17.7 km/h 87% 0 mm 91 W/m2
11:04 4.3 °C 2.4 °C 1004.3 hPa SSW 3.5 km/h 17.7 km/h 87.1% 0 mm 93 W/m2
11:09 4.3 °C 2.5 °C 1004.3 hPa South 1.4 km/h 9.7 km/h 88% 0 mm 98 W/m2
11:14 4.3 °C 2.5 °C 1004.3 hPa South 1.3 km/h 9.7 km/h 88% 0 mm 120 W/m2
11:19 4.3 °C 2.5 °C 1004.3 hPa South 0.3 km/h 9.7 km/h 88% 0 mm 76 W/m2
11:24 4.3 °C 2.5 °C 1004.3 hPa South 0.3 km/h 9.7 km/h 88% 0 mm 53 W/m2
11:29 4.3 °C 2.5 °C 1004.3 hPa South 0.5 km/h 9.7 km/h 88% 0 mm 72 W/m2
11:34 4.3 °C 2.6 °C 1004.3 hPa South 0.6 km/h 9.7 km/h 88.8% 0 mm 77 W/m2
11:39 4.3 °C 2.7 °C 1003.9 hPa SSW 0.2 km/h 4.8 km/h 89% 0 mm 84 W/m2
11:44 4.3 °C 2.7 °C 1003.9 hPa South 1.8 km/h 11.3 km/h 89% 0 mm 79 W/m2
11:49 4.3 °C 2.7 °C 1003.9 hPa South 0.3 km/h 11.3 km/h 89% 0 mm 70 W/m2
11:54 4.3 °C 2.7 °C 1003.6 hPa South 0.2 km/h 11.3 km/h 89% 0 mm 81 W/m2
11:59 4.3 °C 2.8 °C 1003.9 hPa Calm   11.3 km/h 89.9% 0 mm 69 W/m2
12:04 4.3 °C 2.8 °C 1003.6 hPa South 3.2 km/h 3.2 km/h 90% 0 mm 65 W/m2
12:09 4.4 °C 2.9 °C 1003.6 hPa South 0.5 km/h 4.8 km/h 90% 0.25 mm 84 W/m2
12:14 4.4 °C 2.9 °C 1003.6 hPa South 0.3 km/h 4.8 km/h 90% 0.25 mm 84 W/m2
12:19 4.4 °C 2.8 °C 1003.6 hPa SSW 0.5 km/h 4.8 km/h 89.7% 0.25 mm 88 W/m2
12:24 4.4 °C 2.8 °C 1003.6 hPa Calm   4.8 km/h 89% 0.25 mm 98 W/m2
12:29 4.4 °C 2.9 °C 1003.6 hPa Calm   4.8 km/h 89.5% 0.25 mm 109 W/m2
12:34 4.5 °C 2.8 °C 1003.6 hPa Calm   4.8 km/h 89% 0.25 mm 81 W/m2
12:39 4.6 °C 2.9 °C 1003.6 hPa SSW 0.3 km/h 3.2 km/h 89% 0.25 mm 83 W/m2
12:44 4.6 °C 2.9 °C 1003.3 hPa SSW 0.2 km/h 4.8 km/h 89% 0.25 mm 77 W/m2
12:49 4.6 °C 2.8 °C 1003.3 hPa SSW 0.5 km/h 4.8 km/h 88.1% 0.25 mm 100 W/m2
12:54 4.6 °C 2.8 °C 1003.3 hPa SSW 0.5 km/h 4.8 km/h 88% 0.25 mm 90 W/m2
12:59 4.6 °C 2.8 °C 1003.3 hPa SSW 0.6 km/h 4.8 km/h 88% 0.25 mm 107 W/m2
13:04 4.7 °C 2.8 °C 1003.3 hPa SSW 2.1 km/h 8 km/h 87.6% 0.25 mm 105 W/m2
13:09 4.7 °C 2.7 °C 1002.9 hPa SW 2.1 km/h 8 km/h 87% 0 mm 137 W/m2
13:14 4.7 °C 2.7 °C 1002.9 hPa SW 1.3 km/h 11.3 km/h 86.9% 0 mm 116 W/m2
13:19 4.8 °C 2.7 °C 1002.9 hPa Calm   11.3 km/h 86% 0 mm 109 W/m2
13:24 4.9 °C 2.7 °C 1002.9 hPa SW 0.5 km/h 11.3 km/h 86% 0 mm 104 W/m2
13:29 4.9 °C 2.8 °C 1002.9 hPa SW 0.3 km/h 11.3 km/h 86% 0.25 mm 118 W/m2
13:34 4.9 °C 2.7 °C 1002.6 hPa SW 0.5 km/h 11.3 km/h 85.1% 0.25 mm 127 W/m2
13:39 5 °C 2.7 °C 1002.6 hPa WSW 1.3 km/h 9.7 km/h 85% 0.25 mm 118 W/m2
13:44 5.1 °C 2.7 °C 1002.6 hPa SW 2.3 km/h 9.7 km/h 84.5% 0.51 mm 137 W/m2
13:49 5.1 °C 2.6 °C 1002.6 hPa SW 1.9 km/h 9.7 km/h 84% 0.51 mm 181 W/m2
13:54 5.2 °C 2.7 °C 1002.6 hPa SW 1 km/h 9.7 km/h 84% 0.51 mm 186 W/m2
13:59 5.3 °C 2.7 °C 1002.6 hPa SW 0.5 km/h 9.7 km/h 83.7% 0.76 mm 185 W/m2
14:04 5.3 °C 2.7 °C 1002.6 hPa WSW 1.6 km/h 14.5 km/h 83% 0.76 mm 160 W/m2
14:09 5.4 °C 2.7 °C 1002.6 hPa West 0.3 km/h 14.5 km/h 82.2% 0.76 mm 142 W/m2
14:14 5.4 °C 2.7 °C 1002.6 hPa WSW 0.6 km/h 14.5 km/h 82% 1.02 mm 118 W/m2
14:19 5.5 °C 2.7 °C 1002.6 hPa WSW 0.6 km/h 14.5 km/h 82% 1.02 mm 142 W/m2
14:24 5.5 °C 2.7 °C 1002.6 hPa Calm   14.5 km/h 82% 1.02 mm 137 W/m2
14:29 5.5 °C 2.7 °C 1002.6 hPa WSW 0.3 km/h 14.5 km/h 82% 1.27 mm 146 W/m2
14:34 5.6 °C 2.6 °C 1002.6 hPa WSW 0.2 km/h 14.5 km/h 81.4% 1.27 mm 95 W/m2
14:39 5.6 °C 2.6 °C 1002.6 hPa WSW 0.3 km/h 3.2 km/h 81% 1.02 mm 105 W/m2
14:44 5.6 °C 2.6 °C 1002.6 hPa WSW 0.2 km/h 3.2 km/h 81% 1.02 mm 109 W/m2
14:49 5.6 °C 2.6 °C 1002.6 hPa WSW 0.5 km/h 3.2 km/h 81% 1.27 mm 141 W/m2
14:54 5.6 °C 2.6 °C 1002.6 hPa WSW 0.5 km/h 4.8 km/h 81% 1.27 mm 104 W/m2
14:59 5.6 °C 2.6 °C 1002.6 hPa WSW 1 km/h 4.8 km/h 81% 1.27 mm 128 W/m2
15:04 5.6 °C 2.6 °C 1002.3 hPa WSW 0.6 km/h 4.8 km/h 81% 1.27 mm 137 W/m2
15:09 5.6 °C 2.6 °C 1002.6 hPa WSW 1 km/h 8 km/h 81% 1.02 mm 137 W/m2
15:14 5.6 °C 2.6 °C 1002.6 hPa WSW 1.3 km/h 8 km/h 81% 1.02 mm 155 W/m2
15:19 5.6 °C 2.6 °C 1002.6 hPa WSW 0.2 km/h 8 km/h 81% 1.02 mm 151 W/m2
15:24 5.7 °C 2.6 °C 1002.6 hPa WSW 0.6 km/h 8 km/h 80.6% 1.02 mm 149 W/m2
15:29 5.8 °C 2.6 °C 1002.3 hPa WSW 0.5 km/h 8 km/h 80% 1.27 mm 153 W/m2
15:34 5.8 °C 2.7 °C 1002.3 hPa WSW 0.3 km/h 8 km/h 80% 1.27 mm 151 W/m2
15:39 5.9 °C 2.6 °C 1002.3 hPa WSW 0.2 km/h 3.2 km/h 79% 0.76 mm 72 W/m2
15:44 5.9 °C 2.6 °C 1002.3 hPa Calm   3.2 km/h 79% 0.76 mm 83 W/m2
15:49 5.8 °C 2.5 °C 1002.3 hPa WSW 1.3 km/h 6.4 km/h 79% 1.02 mm 76 W/m2
15:54 5.7 °C 2.4 °C 1002.3 hPa WSW 0.6 km/h 6.4 km/h 79% 1.02 mm 72 W/m2
15:59 5.7 °C 2.3 °C 1002.3 hPa Calm   6.4 km/h 79% 1.02 mm 70 W/m2
16:00 5.7 °C 2.3 °C 1001.9 hPa Calm   6.4 km/h 79% 1.02 mm 60 W/m2
16:09 5.6 °C 2.3 °C 1001.9 hPa Calm     79% 0.76 mm 53 W/m2
16:14 5.6 °C 2.3 °C 1001.9 hPa Calm   1.6 km/h 79.3% 0.76 mm 53 W/m2
16:19 5.6 °C 2.4 °C 1001.9 hPa WSW 0.2 km/h 3.2 km/h 80% 0.76 mm 54 W/m2
16:24 5.5 °C 2.3 °C 1001.9 hPa Calm   3.2 km/h 80% 0.76 mm 53 W/m2
16:29 5.4 °C 2.3 °C 1002.3 hPa Calm   3.2 km/h 80% 0.76 mm 44 W/m2
16:34 5.4 °C 2.2 °C 1002.3 hPa Calm   3.2 km/h 80% 0.76 mm 44 W/m2
16:39 5.3 °C 2.2 °C 1002.3 hPa Calm   1.6 km/h 80.2% 0.51 mm 44 W/m2
16:44 5.3 °C 2.3 °C 1002.3 hPa WSW 0.2 km/h 3.2 km/h 80.8% 0.51 mm 40 W/m2
16:49 5.3 °C 2.3 °C 1002.3 hPa Calm   3.2 km/h 81% 0.51 mm 30 W/m2
16:54 5.2 °C 2.2 °C 1002.3 hPa Calm   3.2 km/h 81% 0.51 mm 21 W/m2
16:59 5.2 °C 2.2 °C 1002.3 hPa Calm   3.2 km/h 81% 0.51 mm 11 W/m2
17:04 5.1 °C 2.1 °C 1002.3 hPa Calm   3.2 km/h 81% 0.51 mm 7 W/m2
17:09 4.9 °C 2 °C 1002.3 hPa Calm     81% 0.25 mm 5 W/m2
17:14 4.8 °C 1.8 °C 1002.3 hPa Calm     81% 0.25 mm 0 W/m2
17:19 4.7 °C 1.9 °C 1002.3 hPa Calm     81.8% 0.25 mm 0 W/m2
17:24 4.6 °C 1.8 °C 1002.3 hPa Calm     82% 0.25 mm 0 W/m2
17:29 4.4 °C 1.7 °C 1001.9 hPa Calm     82% 0.25 mm 0 W/m2
17:34 4.3 °C 1.7 °C 1002.3 hPa Calm     82.7% 0.25 mm 0 W/m2
17:39 4.2 °C 1.6 °C 1002.3 hPa Calm     83% 0.25 mm 0 W/m2
17:44 4.1 °C 1.6 °C 1002.3 hPa Calm     83.8% 0.25 mm 0 W/m2
17:49 4 °C 1.6 °C 1002.3 hPa Calm     84% 0.25 mm 0 W/m2
17:54 3.9 °C 1.4 °C 1002.6 hPa Calm     84% 0.25 mm 0 W/m2
17:59 3.7 °C 1.3 °C 1002.3 hPa Calm     84% 0.25 mm 0 W/m2
18:04 3.6 °C 1.2 °C 1002.6 hPa Calm     84% 0.25 mm 0 W/m2
18:09 3.5 °C 1.2 °C 1002.6 hPa Calm     84.7% 0 mm 0 W/m2
18:14 3.4 °C 1.1 °C 1002.6 hPa Calm     85% 0 mm 0 W/m2
18:19 3.3 °C 1 °C 1002.6 hPa Calm     85% 0 mm 0 W/m2
18:24 3.2 °C 0.9 °C 1002.6 hPa Calm     85.5% 0 mm 0 W/m2
18:29 3 °C 0.9 °C 1002.6 hPa Calm     86% 0 mm 0 W/m2
18:34 2.9 °C 0.8 °C 1002.9 hPa Calm     86% 0 mm 0 W/m2
18:39 2.8 °C 0.7 °C 1002.9 hPa Calm     86% 0 mm 0 W/m2
18:44 2.6 °C 0.5 °C 1002.9 hPa Calm     86% 0 mm 0 W/m2
18:49 2.4 °C 0.4 °C 1002.6 hPa Calm     86.6% 0 mm 0 W/m2
18:54 2.3 °C 0.4 °C 1002.6 hPa Calm     87% 0 mm 0 W/m2
18:59 2.3 °C 0.4 °C 1002.9 hPa Calm     87.3% 0 mm 0 W/m2
19:04 2.2 °C 0.4 °C 1002.9 hPa Calm     88% 0 mm 0 W/m2
19:09 2.1 °C 0.3 °C 1002.9 hPa Calm     88% 0 mm 0 W/m2
19:14 2 °C 0.2 °C 1002.9 hPa Calm     88% 0 mm 0 W/m2
19:19 1.9 °C 0.3 °C 1002.9 hPa Calm     88.7% 0 mm 0 W/m2
19:24 1.8 °C 0.2 °C 1003.3 hPa Calm     89% 0 mm 0 W/m2
19:29 1.8 °C 0.2 °C 1003.3 hPa Calm     89% 0 mm 0 W/m2
19:34 1.7 °C 0.1 °C 1003.6 hPa Calm     89% 0 mm 0 W/m2
19:39 1.7 °C 0.1 °C 1003.6 hPa Calm     89% 0 mm 0 W/m2
19:44 1.6 °C 0 °C 1003.6 hPa Calm     89% 0 mm 0 W/m2
19:49 1.5 °C -0.1 °C 1003.6 hPa Calm     89% 0 mm 0 W/m2
19:54 1.4 °C -0.1 °C 1003.6 hPa Calm     89.6% 0 mm 0 W/m2
19:59 1.3 °C -0.1 °C 1003.6 hPa Calm     90% 0 mm 0 W/m2
20:00 1.3 °C -0.1 °C 1003.3 hPa Calm     90% 0 mm 0 W/m2
20:09 1.3 °C 0 °C 1003.3 hPa Calm     91% 0 mm 0 W/m2
20:14 1.2 °C -0.1 °C 1003.3 hPa Calm     90.8% 0 mm 0 W/m2
20:19 1.2 °C -0.1 °C 1003.3 hPa Calm     91% 0 mm 0 W/m2
20:24 1.2 °C -0.1 °C 1003.3 hPa Calm     91% 0 mm 0 W/m2
20:29 1.1 °C -0.2 °C 1003.3 hPa Calm     91% 0 mm 0 W/m2
20:34 1.1 °C -0.2 °C 1003.3 hPa Calm     91% 0 mm 0 W/m2
20:39 1 °C -0.3 °C 1003.3 hPa Calm     91% 0 mm 0 W/m2
20:44 0.9 °C -0.4 °C 1003.3 hPa Calm     91% 0 mm 0 W/m2
20:49 0.8 °C -0.6 °C 1003.3 hPa Calm     91% 0 mm 0 W/m2
20:54 0.7 °C -0.6 °C 1002.9 hPa Calm     91.1% 0 mm 0 W/m2
20:59 0.8 °C -0.4 °C 1002.9 hPa Calm     92% 0 mm 0 W/m2
21:04 0.8 °C -0.3 °C 1002.9 hPa Calm     92% 0 mm 0 W/m2
21:09 0.9 °C -0.2 °C 1002.9 hPa Calm     92.5% 0 mm 0 W/m2
21:14 0.9 °C -0.1 °C 1003.3 hPa Calm     93% 0 mm 0 W/m2
21:19 0.9 °C -0.1 °C 1003.3 hPa Calm     92.7% 0 mm 0 W/m2
21:24 0.8 °C -0.3 °C 1003.6 hPa Calm     92% 0 mm 0 W/m2
21:29 0.7 °C -0.4 °C 1003.6 hPa Calm     92% 0 mm 0 W/m2
21:34 0.6 °C -0.6 °C 1003.6 hPa Calm     92% 0 mm 0 W/m2
21:39 0.6 °C -0.6 °C 1003.6 hPa Calm     92% 0 mm 0 W/m2
21:44 0.6 °C -0.5 °C 1003.6 hPa Calm     92.5% 0 mm 0 W/m2
21:49 0.6 °C -0.4 °C 1003.6 hPa Calm     93% 0 mm 0 W/m2
21:54 0.6 °C -0.4 °C 1003.6 hPa Calm     93% 0 mm 0 W/m2
21:59 0.5 °C -0.5 °C 1003.9 hPa Calm     93% 0 mm 0 W/m2
22:04 0.6 °C -0.4 °C 1003.9 hPa Calm     93% 0 mm 0 W/m2
22:09 0.6 °C -0.4 °C 1003.9 hPa Calm     93% 0 mm 0 W/m2
22:14 0.6 °C -0.4 °C 1003.9 hPa Calm     93% 0 mm 0 W/m2
22:19 0.6 °C -0.4 °C 1003.9 hPa Calm     93% 0 mm 0 W/m2
22:24 0.5 °C -0.5 °C 1004.3 hPa Calm   1.6 km/h 93% 0 mm 0 W/m2
22:29 0.3 °C -0.7 °C 1004.6 hPa Calm   1.6 km/h 93% 0 mm 0 W/m2
22:34 0.2 °C -0.8 °C 1004.6 hPa Calm   1.6 km/h 93% 0 mm 0 W/m2
22:39 0.1 °C -0.9 °C 1004.6 hPa Calm     93% 0 mm 0 W/m2
22:44 0 °C -1 °C 1004.6 hPa Calm     93% 0 mm 0 W/m2
22:49 -0.1 °C -1.1 °C 1004.6 hPa Calm     93% 0 mm 0 W/m2
22:54 -0.2 °C -1.2 °C 1004.6 hPa Calm     93% 0 mm 0 W/m2
22:58 -0.2 °C -1.2 °C 1004.6 hPa Calm     93% 0 mm 0 W/m2
23:04 -0.2 °C -1.2 °C 1005 hPa Calm     93% 0 mm 0 W/m2
23:09 -0.2 °C -1.2 °C 1005 hPa Calm     93% 0 mm 0 W/m2
23:14 -0.2 °C -1.2 °C 1005 hPa Calm     93% 0 mm 0 W/m2
23:19 -0.2 °C -1.1 °C 1005.3 hPa WSW 0.2 km/h 3.2 km/h 93.7% 0 mm 0 W/m2
23:24 -0.1 °C -0.9 °C 1005.3 hPa WSW 1.4 km/h 6.4 km/h 94% 0 mm 0 W/m2
23:29 0 °C -0.6 °C 1005.3 hPa WSW 2.9 km/h 9.7 km/h 96% 0 mm 0 W/m2
23:34 0.1 °C -0.8 °C 1005.3 hPa WSW 3.4 km/h 11.3 km/h 94% 0 mm 0 W/m2
23:39 0.2 °C -0.7 °C 1005.3 hPa WSW 4 km/h 14.5 km/h 94% 0 mm 0 W/m2
23:44 0.3 °C -0.5 °C 1005.6 hPa WSW 3.9 km/h 14.5 km/h 93.9% 0 mm 0 W/m2
23:49 0.6 °C -0.4 °C 1005.6 hPa SW 4.8 km/h 20.9 km/h 92.9% 0 mm 0 W/m2
23:54 0.8 °C -0.4 °C 1005.6 hPa WSW 2.4 km/h 20.9 km/h 91.4% 0 mm 0 W/m2
23:59 1.1 °C -0.6 °C 1005.6 hPa WSW 3.9 km/h 20.9 km/h 89% 0 mm 0 W/m2
Hartford County Weather
Compliments of Weather Underground - 2 mb